Time;durP1;ratioP1;P1;durP2;ratioP2;P2;SDS_P1;SDS_P2;PMS_P1;PMS_P2;Temp;Humidity;BMP_temperature;BMP_pressure;BME280_temperature;BME280_humidity;BME280_pressure;Samples;Min_cycle;Max_cycle;Signal;HPM_P1;HPM_P2
2023/01/23 00:01:04;;;;;;;77.30;54.53;;;20.00;89.50;;;;;;1898082;75;21240;-90
2023/01/23 00:03:35;;;;;;;81.45;55.48;;;19.90;89.50;;;;;;1853295;76;21212;-68
2023/01/23 00:06:09;;;;;;;87.00;58.95;;;19.90;89.90;;;;;;1853124;76;21143;-69
2023/01/23 00:08:41;;;;;;;83.75;55.67;;;19.90;90.10;;;;;;1887393;74;22136;-70
2023/01/23 00:11:16;;;;;;;94.95;61.28;;;19.90;90.00;;;;;;1880319;74;21422;-89
2023/01/23 00:13:47;;;;;;;99.37;69.35;;;19.80;90.10;;;;;;1879972;74;21119;-87
2023/01/23 00:16:22;;;;;;;95.07;59.50;;;19.80;90.10;;;;;;1881054;74;21144;-87
2023/01/23 00:18:54;;;;;;;92.78;61.10;;;19.80;90.10;;;;;;1883284;75;21225;-87
2023/01/23 00:21:28;;;;;;;91.95;62.33;;;19.80;90.20;;;;;;1879059;74;21202;-87
2023/01/23 00:24:00;;;;;;;107.10;71.45;;;19.80;90.20;;;;;;1887832;74;21202;-86
2023/01/23 00:26:32;;;;;;;102.02;71.37;;;19.80;90.30;;;;;;1890992;74;21052;-86
2023/01/23 00:29:04;;;;;;;117.17;76.77;;;19.80;90.30;;;;;;1890554;74;21096;-88
2023/01/23 00:31:36;;;;;;;115.15;77.03;;;19.80;90.40;;;;;;1890947;74;21173;-86
2023/01/23 00:34:10;;;;;;;128.95;79.60;;;19.80;90.50;;;;;;1894103;74;21150;-85
2023/01/23 00:36:42;;;;;;;119.90;79.15;;;19.80;90.50;;;;;;1866964;74;21256;-89
2023/01/23 00:39:16;;;;;;;115.62;77.65;;;19.90;90.30;;;;;;1918278;74;21163;-85
2023/01/23 00:41:49;;;;;;;122.67;78.57;;;19.90;90.30;;;;;;1898038;74;21112;-87
2023/01/23 00:44:20;;;;;;;115.70;74.65;;;20.00;90.40;;;;;;1882452;75;21112;-90
2023/01/23 00:46:51;;;;;;;110.00;70.75;;;20.00;90.30;;;;;;1907779;74;21156;-88
2023/01/23 00:49:22;;;;;;;94.72;64.32;;;20.10;90.20;;;;;;1894314;75;21166;-88
2023/01/23 00:51:55;;;;;;;102.15;61.13;;;20.20;90.10;;;;;;1879647;75;21131;-88
2023/01/23 00:54:26;;;;;;;95.53;56.60;;;20.20;89.20;;;;;;1899122;74;21228;-89
2023/01/23 00:56:57;;;;;;;84.67;49.70;;;20.30;88.50;;;;;;1886940;74;21198;-90
2023/01/23 00:59:28;;;;;;;75.92;45.78;;;20.40;87.20;;;;;;1913264;74;21457;-87
2023/01/23 01:01:59;;;;;;;67.70;42.48;;;20.40;85.30;;;;;;1878289;75;21217;-86
2023/01/23 01:04:29;;;;;;;76.70;44.83;;;20.50;84.80;;;;;;1889213;74;21566;-89
2023/01/23 01:07:00;;;;;;;68.37;44.13;;;20.60;84.60;;;;;;1879424;74;21120;-88
2023/01/23 01:09:35;;;;;;;65.10;39.98;;;20.70;83.30;;;;;;1894962;74;21582;-89
2023/01/23 01:12:07;;;;;;;65.67;39.60;;;20.70;81.90;;;;;;1888970;75;21100;-90
2023/01/23 01:14:39;;;;;;;75.95;38.80;;;20.70;80.80;;;;;;1890407;74;21586;-88
2023/01/23 01:17:10;;;;;;;68.60;37.80;;;20.70;80.30;;;;;;1881835;74;21260;-87
2023/01/23 01:19:41;;;;;;;67.67;36.38;;;20.70;80.00;;;;;;1889165;74;21048;-90
2023/01/23 01:22:12;;;;;;;65.95;37.78;;;20.70;80.50;;;;;;1889034;74;21072;-91
2023/01/23 01:24:43;;;;;;;64.10;38.28;;;20.70;81.00;;;;;;1888374;74;21737;-88
2023/01/23 01:27:14;;;;;;;62.75;37.63;;;20.70;81.50;;;;;;1869192;75;21225;-88
2023/01/23 01:29:45;;;;;;;68.92;36.50;;;20.70;82.10;;;;;;1894525;74;21064;-87
2023/01/23 01:32:16;;;;;;;74.47;38.83;;;20.70;81.90;;;;;;1889276;74;21166;-87
2023/01/23 01:34:46;;;;;;;62.80;37.75;;;20.80;82.00;;;;;;1886422;74;21121;-86
2023/01/23 01:37:21;;;;;;;71.90;36.63;;;20.80;81.90;;;;;;1879057;74;21088;-88
2023/01/23 01:39:51;;;;;;;73.83;39.18;;;20.90;81.70;;;;;;1884491;74;21169;-88
2023/01/23 01:42:27;;;;;;;71.30;39.85;;;20.90;81.50;;;;;;1886339;74;21186;-90
2023/01/23 01:44:58;;;;;;;66.07;37.75;;;21.00;81.70;;;;;;1880595;73;21172;-91
2023/01/23 01:47:31;;;;;;;67.12;37.75;;;21.10;81.90;;;;;;1888683;74;21625;-89
2023/01/23 01:50:04;;;;;;;66.55;37.93;;;21.20;82.20;;;;;;1841031;76;21205;-87
2023/01/23 01:52:35;;;;;;;63.75;37.93;;;21.30;82.30;;;;;;1881981;74;21078;-88
2023/01/23 01:55:16;;;;;;;62.75;38.33;;;21.40;82.40;;;;;;1899856;74;21133;-90
2023/01/23 01:57:48;;;;;;;70.72;37.85;;;21.50;82.20;;;;;;1855198;75;21261;-88
2023/01/23 02:00:26;;;;;;;67.62;38.67;;;21.60;82.10;;;;;;1875558;74;21538;-84
2023/01/23 02:03:00;;;;;;;60.35;38.10;;;21.70;81.90;;;;;;1878902;74;21726;-89
2023/01/23 02:05:33;;;;;;;76.55;40.30;;;21.80;81.50;;;;;;1885586;74;21231;-91
2023/01/23 02:08:33;;;;;;;65.92;43.08;;;21.90;81.40;;;;;;1889135;74;21213;-88
2023/01/23 02:11:05;;;;;;;67.00;44.05;;;22.10;81.00;;;;;;1889872;74;21523;-86
2023/01/23 02:13:38;;;;;;;63.00;45.58;;;22.20;81.30;;;;;;1880414;74;21177;-88
2023/01/23 02:16:11;;;;;;;72.55;49.67;;;22.30;80.00;;;;;;1882436;74;21088;-87
2023/01/23 02:18:46;;;;;;;75.80;50.23;;;22.40;79.30;;;;;;1892445;74;21198;-87
2023/01/23 02:21:23;;;;;;;73.78;50.28;;;22.50;78.80;;;;;;1894608;74;21179;-87
2023/01/23 02:24:07;;;;;;;72.20;50.70;;;22.60;78.20;;;;;;1888368;74;21575;-90
2023/01/23 02:26:43;;;;;;;78.00;50.60;;;22.70;77.30;;;;;;1883056;75;21123;-85
2023/01/23 02:29:17;;;;;;;68.87;49.58;;;22.80;76.60;;;;;;1898916;74;21131;-86
2023/01/23 02:31:50;;;;;;;80.07;54.45;;;22.90;76.30;;;;;;1891707;74;21557;-88
2023/01/23 02:34:21;;;;;;;73.22;54.35;;;23.00;76.90;;;;;;1887386;74;21158;-85
2023/01/23 02:36:52;;;;;;;78.45;55.40;;;23.10;77.40;;;;;;1891752;74;21079;-82
2023/01/23 02:39:23;;;;;;;75.90;53.75;;;23.20;76.90;;;;;;1893248;74;21155;-84
2023/01/23 02:41:55;;;;;;;75.70;55.35;;;23.30;76.70;;;;;;1890364;74;21147;-85
2023/01/23 02:44:31;;;;;;;85.32;57.67;;;23.30;76.70;;;;;;1911299;74;21079;-87
2023/01/23 02:47:07;;;;;;;83.52;60.10;;;23.40;77.60;;;;;;1892030;74;21178;-85
2023/01/23 02:49:39;;;;;;;80.42;59.55;;;23.50;78.00;;;;;;1858321;74;21148;-84
2023/01/23 02:52:10;;;;;;;82.27;60.88;;;23.60;78.10;;;;;;1890089;74;21100;-85
2023/01/23 02:54:41;;;;;;;85.28;61.20;;;23.60;77.90;;;;;;1892833;74;21071;-84
2023/01/23 02:57:11;;;;;;;87.47;61.05;;;23.70;77.70;;;;;;1906541;74;21089;-85
2023/01/23 03:02:30;;;;;;;91.75;64.95;;;23.80;77.00;;;;;;1896647;74;21204;-85
2023/01/23 03:05:01;;;;;;;82.65;61.10;;;23.80;76.60;;;;;;1870512;74;21206;-86
2023/01/23 03:07:32;;;;;;;89.42;64.12;;;23.90;76.30;;;;;;1878168;74;21119;-86
2023/01/23 03:10:04;;;;;;;92.45;64.15;;;24.00;75.90;;;;;;1879328;75;21509;-85
2023/01/23 03:12:36;;;;;;;87.72;64.87;;;24.00;75.50;;;;;;1882121;74;21237;-85
2023/01/23 03:15:08;;;;;;;91.50;64.62;;;24.10;74.60;;;;;;1870319;74;21117;-86
2023/01/23 03:17:39;;;;;;;98.85;65.32;;;24.20;74.30;;;;;;1881679;74;21134;-85
2023/01/23 03:20:10;;;;;;;95.40;68.40;;;24.30;73.80;;;;;;1905186;74;21052;-85
2023/01/23 03:22:42;;;;;;;93.30;65.92;;;24.30;73.70;;;;;;1895476;74;21186;-84
2023/01/23 03:25:12;;;;;;;100.20;68.60;;;24.40;73.20;;;;;;1886896;74;21615;-85
2023/01/23 03:27:43;;;;;;;92.08;66.77;;;24.50;73.20;;;;;;1895245;74;21115;-86
2023/01/23 03:30:20;;;;;;;95.22;66.62;;;24.60;72.10;;;;;;1883309;74;21177;-84
2023/01/23 03:32:51;;;;;;;93.72;69.40;;;24.80;72.10;;;;;;1889767;74;21076;-85
2023/01/23 03:35:25;;;;;;;90.87;66.40;;;24.90;71.20;;;;;;1882021;75;21139;-86
2023/01/23 03:37:56;;;;;;;82.27;62.58;;;25.00;71.20;;;;;;1892793;74;21583;-86
2023/01/23 03:43:17;;;;;;;81.60;60.50;;;25.20;70.00;;;;;;1891488;74;21141;-86
2023/01/23 03:45:48;;;;;;;79.17;60.40;;;25.30;69.80;;;;;;1809022;79;21159;-84
2023/01/23 03:48:19;;;;;;;77.00;57.98;;;25.30;69.50;;;;;;1901604;73;21107;-83
2023/01/23 03:50:50;;;;;;;74.80;56.85;;;25.30;67.90;;;;;;1881561;74;21109;-85
2023/01/23 03:53:22;;;;;;;79.92;56.75;;;25.40;68.10;;;;;;1891495;74;21177;-86
2023/01/23 03:55:53;;;;;;;69.55;53.63;;;25.50;68.40;;;;;;1892063;74;21591;-86
2023/01/23 03:58:24;;;;;;;71.22;50.20;;;25.60;68.20;;;;;;1897366;74;21117;-86
2023/01/23 04:00:56;;;;;;;64.17;47.75;;;25.80;67.60;;;;;;1891832;74;21095;-86
2023/01/23 04:03:27;;;;;;;64.47;50.25;;;25.90;67.00;;;;;;1886573;74;21103;-84
2023/01/23 04:06:00;;;;;;;67.90;49.40;;;26.10;67.00;;;;;;1904078;74;21119;-84
2023/01/23 04:08:30;;;;;;;65.25;48.28;;;26.20;66.20;;;;;;1888611;74;21080;-86
2023/01/23 04:11:09;;;;;;;66.40;49.33;;;26.30;65.60;;;;;;1881865;75;21146;-86
2023/01/23 04:13:40;;;;;;;61.70;46.95;;;26.50;64.40;;;;;;1866677;75;21145;-86
2023/01/23 04:16:11;;;;;;;61.23;44.95;;;26.60;64.00;;;;;;1896160;74;21024;-83
2023/01/23 04:18:42;;;;;;;64.03;43.33;;;26.70;62.80;;;;;;1890430;74;21076;-83
2023/01/23 04:21:13;;;;;;;54.35;39.08;;;26.80;62.80;;;;;;1900348;74;21016;-86
2023/01/23 04:23:44;;;;;;;49.58;37.78;;;26.90;62.00;;;;;;1900556;74;21145;-83
2023/01/23 04:26:15;;;;;;;47.10;35.48;;;27.00;60.40;;;;;;1907431;74;21212;-84
2023/01/23 04:28:46;;;;;;;48.02;34.75;;;27.10;61.60;;;;;;1890325;74;21080;-86
2023/01/23 04:31:16;;;;;;;47.23;35.05;;;27.20;60.00;;;;;;1879057;74;21122;-86
2023/01/23 04:33:47;;;;;;;45.88;34.03;;;27.40;59.50;;;;;;1884365;74;21522;-85
2023/01/23 04:36:19;;;;;;;44.67;30.48;;;27.50;59.20;;;;;;1890141;74;21240;-89
2023/01/23 04:38:50;;;;;;;36.93;28.35;;;27.60;56.40;;;;;;1882886;74;21076;-87
2023/01/23 04:41:27;;;;;;;41.55;27.95;;;27.70;56.10;;;;;;1877082;74;21080;-87
2023/01/23 04:44:18;;;;;;;38.65;26.68;;;27.80;56.60;;;;;;1885893;74;21455;-90
2023/01/23 04:46:31;;;;;;;44.23;29.55;;;27.90;57.20;;;;;;1882476;74;21061;-91
2023/01/23 04:49:21;;;;;;;44.23;29.87;;;28.00;56.10;;;;;;1886968;74;21115;-88
2023/01/23 04:51:54;;;;;;;34.18;24.87;;;28.10;54.10;;;;;;1878469;74;21068;-89
2023/01/23 04:54:25;;;;;;;34.25;26.33;;;28.30;51.80;;;;;;1881225;74;21759;-88
2023/01/23 04:56:56;;;;;;;43.30;32.10;;;28.30;52.30;;;;;;1881887;74;21154;-87
2023/01/23 04:59:27;;;;;;;42.05;32.65;;;28.40;53.90;;;;;;1889733;74;21064;-91
2023/01/23 05:01:58;;;;;;;49.03;34.45;;;28.50;55.20;;;;;;1865268;74;21203;-91
2023/01/23 05:04:29;;;;;;;48.17;35.03;;;28.50;54.60;;;;;;1874301;75;21084;-88
2023/01/23 05:07:00;;;;;;;48.92;35.05;;;28.60;54.90;;;;;;1880236;74;21630;-89
2023/01/23 05:09:32;;;;;;;45.92;31.90;;;28.60;55.00;;;;;;1894247;74;21568;-90
2023/01/23 05:12:03;;;;;;;37.88;28.67;;;28.80;54.70;;;;;;1913358;74;21160;-88
2023/01/23 05:14:34;;;;;;;40.92;27.55;;;28.90;53.10;;;;;;1909674;74;21087;-91
2023/01/23 05:17:05;;;;;;;45.67;28.87;;;29.00;52.50;;;;;;1828722;77;21167;-91
2023/01/23 05:19:39;;;;;;;41.63;28.25;;;29.10;53.60;;;;;;1907327;74;21123;-90
2023/01/23 05:22:11;;;;;;;39.85;27.55;;;29.10;52.50;;;;;;1851395;76;21111;-90
2023/01/23 05:24:42;;;;;;;40.00;28.52;;;29.10;52.00;;;;;;1886578;74;21070;-91
2023/01/23 05:27:13;;;;;;;33.95;25.65;;;29.20;52.10;;;;;;1893473;74;21076;-90
2023/01/23 05:29:44;;;;;;;29.87;24.50;;;29.30;51.00;;;;;;1894827;74;21060;-91
2023/01/23 05:32:16;;;;;;;29.52;22.80;;;29.30;51.50;;;;;;1883945;74;21207;-92
2023/01/23 05:34:47;;;;;;;27.20;21.02;;;29.40;50.60;;;;;;1919268;74;21138;-90
2023/01/23 05:37:24;;;;;;;28.05;23.32;;;29.50;50.10;;;;;;1893725;74;21059;-92
2023/01/23 05:39:53;;;;;;;29.23;22.35;;;29.50;50.90;;;;;;1896376;74;21087;-91
2023/01/23 05:42:31;;;;;;;27.80;22.17;;;29.60;48.70;;;;;;1884354;74;21079;-93
2023/01/23 05:45:07;;;;;;;24.00;18.35;;;29.60;48.30;;;;;;1902132;74;21107;-89
2023/01/23 05:47:41;;;;;;;23.02;16.40;;;29.70;49.50;;;;;;1897844;74;21194;-91
2023/01/23 05:50:21;;;;;;;23.12;15.63;;;29.70;46.60;;;;;;1892862;74;21065;-92
2023/01/23 05:53:06;;;;;;;23.10;17.42;;;29.70;45.60;;;;;;1894258;74;21128;-91
2023/01/23 05:55:39;;;;;;;24.70;19.95;;;29.80;46.20;;;;;;1830695;77;21091;-90
2023/01/23 05:58:15;;;;;;;24.70;19.40;;;29.90;47.30;;;;;;1864936;76;21084;-91
2023/01/23 06:00:47;;;;;;;25.30;19.30;;;29.90;48.40;;;;;;1848684;76;21064;-93
2023/01/23 06:03:22;;;;;;;24.27;19.23;;;29.90;48.80;;;;;;1821013;77;21155;-91
2023/01/23 06:05:56;;;;;;;25.23;18.20;;;30.00;48.20;;;;;;1800647;78;21252;-93
2023/01/23 06:08:31;;;;;;;22.77;18.23;;;30.00;48.30;;;;;;1824526;78;21135;-94
2023/01/23 06:11:04;;;;;;;32.98;20.95;;;30.10;48.10;;;;;;1806938;77;21190;-88
2023/01/23 06:13:36;;;;;;;26.80;19.57;;;30.10;48.30;;;;;;1824690;76;21162;-91
2023/01/23 06:16:19;;;;;;;20.80;16.32;;;30.10;49.90;;;;;;1816278;77;21135;-88
2023/01/23 06:19:09;;;;;;;26.52;16.67;;;30.20;47.00;;;;;;1899970;74;21706;-91
2023/01/23 06:21:48;;;;;;;23.15;16.20;;;30.50;49.30;;;;;;1906900;74;21198;-88
2023/01/23 06:24:22;;;;;;;22.42;17.05;;;30.30;47.80;;;;;;1899166;74;21158;-89
2023/01/23 06:26:55;;;;;;;24.23;17.07;;;30.30;46.40;;;;;;1905527;74;21174;-90
2023/01/23 06:29:32;;;;;;;19.47;16.10;;;30.30;46.40;;;;;;1890106;74;21131;-90
2023/01/23 06:32:07;;;;;;;15.32;12.25;;;30.40;45.70;;;;;;1893989;74;21147;-90
2023/01/23 06:34:38;;;;;;;23.02;14.15;;;30.50;44.50;;;;;;1889360;74;21182;-91
2023/01/23 06:37:11;;;;;;;15.50;13.20;;;30.50;43.90;;;;;;1906406;74;21103;-91
2023/01/23 06:39:41;;;;;;;14.63;12.50;;;30.50;43.70;;;;;;1850604;76;21162;-89
2023/01/23 06:42:15;;;;;;;19.17;13.22;;;30.50;43.60;;;;;;1868159;75;21172;-91
2023/01/23 06:44:46;;;;;;;19.92;13.43;;;30.50;44.40;;;;;;1909575;74;21583;-92
2023/01/23 06:47:18;;;;;;;17.42;13.93;;;30.50;45.40;;;;;;1890146;74;21072;-90
2023/01/23 06:49:55;;;;;;;20.27;14.38;;;30.60;44.80;;;;;;1900373;74;21654;-91
2023/01/23 06:55:21;;;;;;;19.93;16.07;;;30.60;46.00;;;;;;1934202;72;21111;-91
2023/01/23 06:57:57;;;;;;;22.97;16.83;;;30.60;44.90;;;;;;1915352;75;21962;-89
2023/01/23 07:00:29;;;;;;;23.22;16.70;;;30.60;45.00;;;;;;1914134;73;21153;-88
2023/01/23 07:03:02;;;;;;;26.75;16.60;;;30.60;45.00;;;;;;1912344;73;21071;-90
2023/01/23 07:05:42;;;;;;;21.20;16.95;;;30.60;44.40;;;;;;1912598;74;21121;-89
2023/01/23 07:08:15;;;;;;;24.47;17.85;;;30.50;44.80;;;;;;1903529;74;21117;-89
2023/01/23 07:10:49;;;;;;;22.32;17.60;;;30.50;43.90;;;;;;1915366;74;21109;-88
2023/01/23 07:13:31;;;;;;;21.90;17.90;;;30.50;44.50;;;;;;1913300;74;21196;-91
2023/01/23 07:16:07;;;;;;;27.00;19.60;;;30.50;45.30;;;;;;1899796;74;21127;-88
2023/01/23 07:18:43;;;;;;;24.67;17.43;;;30.50;44.80;;;;;;1900427;74;21141;-85
2023/01/23 07:21:19;;;;;;;23.77;18.00;;;30.50;45.80;;;;;;1895282;74;21189;-85
2023/01/23 07:23:55;;;;;;;24.75;18.57;;;30.50;45.30;;;;;;1902203;74;21127;-89
2023/01/23 07:26:26;;;;;;;24.00;18.07;;;30.50;45.20;;;;;;1898731;75;21653;-90
2023/01/23 07:28:58;;;;;;;23.98;18.37;;;30.50;44.90;;;;;;1914817;73;21614;-90
2023/01/23 07:31:36;;;;;;;25.40;16.65;;;30.50;45.60;;;;;;1906796;74;21060;-90
2023/01/23 07:34:14;;;;;;;20.32;17.48;;;30.50;46.00;;;;;;1911933;75;21668;-90
2023/01/23 07:36:48;;;;;;;21.80;17.27;;;30.50;46.20;;;;;;1882725;74;21135;-91
2023/01/23 07:39:19;;;;;;;21.97;16.67;;;30.50;46.20;;;;;;1895509;75;21096;-91
2023/01/23 07:42:04;;;;;;;20.92;17.20;;;30.50;45.10;;;;;;1903267;75;21060;-91
2023/01/23 07:44:35;;;;;;;20.70;16.67;;;30.50;45.00;;;;;;1890753;74;21129;-91
2023/01/23 07:47:07;;;;;;;22.90;18.07;;;30.50;45.80;;;;;;1918161;74;21127;-89
2023/01/23 07:49:38;;;;;;;28.67;19.00;;;30.50;45.40;;;;;;1900668;74;21624;-91
2023/01/23 07:52:11;;;;;;;26.60;17.95;;;30.40;45.50;;;;;;1904531;74;21169;-88
2023/01/23 07:54:46;;;;;;;25.45;17.67;;;30.40;46.00;;;;;;1914161;73;21083;-91
2023/01/23 07:57:17;;;;;;;21.45;17.55;;;30.40;46.00;;;;;;1902255;75;21086;-91
2023/01/23 07:59:49;;;;;;;21.07;16.85;;;30.40;45.30;;;;;;1911075;75;21190;-89
2023/01/23 08:02:27;;;;;;;20.82;17.55;;;30.40;45.90;;;;;;1903295;74;21103;-88
2023/01/23 08:05:10;;;;;;;23.53;17.83;;;30.40;45.20;;;;;;1905195;74;21238;-90
2023/01/23 08:07:42;;;;;;;22.73;18.42;;;30.30;45.30;;;;;;1913328;74;21213;-87
2023/01/23 08:10:22;;;;;;;20.23;18.05;;;30.30;45.90;;;;;;1904655;73;21109;-89
2023/01/23 08:13:11;;;;;;;24.07;17.07;;;30.20;45.60;;;;;;1883227;74;21649;-88
2023/01/23 08:15:45;;;;;;;24.55;18.57;;;30.20;45.90;;;;;;1887249;74;21164;-90
2023/01/23 08:18:24;;;;;;;21.25;17.80;;;30.20;46.70;;;;;;1910806;75;21057;-91
2023/01/23 08:20:56;;;;;;;23.00;18.17;;;30.20;45.40;;;;;;1905104;75;21052;-94
2023/01/23 08:23:35;;;;;;;21.97;17.17;;;30.20;45.60;;;;;;1916252;74;21075;-91
2023/01/23 08:26:23;;;;;;;25.00;18.67;;;30.10;45.90;;;;;;1879269;75;21162;-94
2023/01/23 08:29:11;;;;;;;28.87;17.62;;;30.10;45.80;;;;;;1893352;75;21137;-94
2023/01/23 08:31:44;;;;;;;24.85;18.55;;;30.10;45.80;;;;;;1886550;75;21592;-92
2023/01/23 08:34:15;;;;;;;28.32;21.57;;;30.10;45.10;;;;;;1899005;75;21174;-93
2023/01/23 08:36:46;;;;;;;30.30;19.87;;;30.10;47.10;;;;;;1901292;74;21186;-94
2023/01/23 08:39:18;;;;;;;28.45;19.27;;;30.20;45.60;;;;;;1902009;74;21220;-94
2023/01/23 08:41:49;;;;;;;24.35;17.75;;;30.30;45.70;;;;;;1893664;74;21197;-96
2023/01/23 08:44:20;;;;;;;25.85;18.30;;;30.30;44.60;;;;;;1887920;75;21565;-92
2023/01/23 08:46:51;;;;;;;22.82;18.48;;;30.20;44.30;;;;;;1886837;74;21133;-93
2023/01/23 08:49:22;;;;;;;21.52;16.75;;;30.20;45.00;;;;;;1885975;75;21075;-94
2023/01/23 08:51:53;;;;;;;23.38;18.80;;;30.10;44.90;;;;;;1883169;75;21195;-90
2023/01/23 08:54:24;;;;;;;23.07;19.27;;;30.10;45.00;;;;;;1891571;74;21066;-93
2023/01/23 08:56:54;;;;;;;21.45;17.42;;;30.00;45.10;;;;;;1876804;75;21094;-93
2023/01/23 08:59:26;;;;;;;26.68;17.77;;;30.10;44.30;;;;;;1876011;75;21214;-90
2023/01/23 09:01:56;;;;;;;24.55;17.90;;;30.10;44.40;;;;;;1897411;74;21087;-90
2023/01/23 09:04:30;;;;;;;22.95;17.40;;;30.10;43.50;;;;;;1903214;74;21123;-87
2023/01/23 09:07:04;;;;;;;20.08;16.30;;;30.10;44.30;;;;;;1877160;75;21081;-95
2023/01/23 09:09:35;;;;;;;24.23;17.23;;;30.00;44.50;;;;;;1902622;74;21130;-95
2023/01/23 09:12:07;;;;;;;21.77;16.75;;;30.00;44.80;;;;;;1905144;74;21115;-92
2023/01/23 09:14:40;;;;;;;22.50;17.92;;;29.90;45.00;;;;;;1899796;74;21586;-93
2023/01/23 09:17:12;;;;;;;21.00;16.90;;;30.00;44.40;;;;;;1904910;74;21067;-88
2023/01/23 09:19:43;;;;;;;25.92;19.60;;;29.90;44.10;;;;;;1906408;74;21582;-88
2023/01/23 09:22:17;;;;;;;22.17;16.05;;;29.90;43.80;;;;;;1904012;74;21146;-89
2023/01/23 09:25:08;;;;;;;21.27;15.68;;;29.90;44.40;;;;;;1895532;75;21609;-92
2023/01/23 09:27:46;;;;;;;21.02;16.10;;;29.90;44.70;;;;;;1887945;75;21127;-92
2023/01/23 09:30:19;;;;;;;21.73;15.18;;;29.90;44.00;;;;;;1908372;74;21131;-90
2023/01/23 09:32:50;;;;;;;21.35;15.95;;;29.90;43.40;;;;;;1896507;74;21095;-90
2023/01/23 09:35:22;;;;;;;19.65;15.83;;;29.90;43.90;;;;;;1878657;75;21204;-91
2023/01/23 09:38:03;;;;;;;18.82;15.30;;;29.80;44.50;;;;;;1884940;75;21806;-93
2023/01/23 09:40:53;;;;;;;18.17;15.05;;;29.80;44.30;;;;;;1904487;74;21109;-92
2023/01/23 09:43:27;;;;;;;20.62;16.45;;;29.80;44.40;;;;;;1906130;74;21193;-89
2023/01/23 09:46:15;;;;;;;25.52;17.25;;;29.80;45.10;;;;;;1914604;74;21095;-90
2023/01/23 09:48:51;;;;;;;21.55;15.85;;;29.70;45.40;;;;;;1882431;75;21069;-91
2023/01/23 09:51:39;;;;;;;23.65;16.17;;;29.70;45.50;;;;;;1922043;73;21091;-90
2023/01/23 09:54:32;;;;;;;22.55;16.95;;;29.70;46.00;;;;;;1905921;75;21063;-92
2023/01/23 09:57:06;;;;;;;23.85;16.93;;;29.70;46.10;;;;;;1901422;75;21080;-91
2023/01/23 09:59:39;;;;;;;23.30;16.23;;;29.70;46.70;;;;;;1869506;75;21728;-90
2023/01/23 10:02:18;;;;;;;18.02;14.68;;;29.70;47.50;;;;;;1885045;75;21048;-91
2023/01/23 10:04:55;;;;;;;23.62;15.88;;;29.70;47.40;;;;;;1884309;74;22092;-88
2023/01/23 10:07:47;;;;;;;25.97;17.55;;;29.60;47.30;;;;;;1888222;76;21088;-87
2023/01/23 10:10:38;;;;;;;23.15;16.32;;;29.60;47.10;;;;;;1872554;74;21230;-86
2023/01/23 10:13:17;;;;;;;23.20;16.05;;;29.40;47.60;;;;;;1914318;74;21157;-90
2023/01/23 10:16:19;;;;;;;22.20;16.70;;;29.40;47.20;;;;;;1874194;75;21153;-88
2023/01/23 10:19:10;;;;;;;20.70;16.00;;;29.40;47.20;;;;;;1872762;75;21126;-88
2023/01/23 10:22:09;;;;;;;23.35;16.90;;;29.30;47.50;;;;;;1867662;75;21178;-87
2023/01/23 10:24:50;;;;;;;21.80;17.87;;;29.30;47.70;;;;;;1884257;76;21135;-86
2023/01/23 10:27:28;;;;;;;23.40;15.75;;;29.30;47.40;;;;;;1880419;74;21148;-87
2023/01/23 10:30:19;;;;;;;20.97;15.05;;;29.20;47.50;;;;;;1909583;74;21106;-86
2023/01/23 10:32:53;;;;;;;21.45;16.07;;;29.20;47.70;;;;;;1864958;76;21095;-89
2023/01/23 10:35:29;;;;;;;24.00;16.17;;;29.20;47.70;;;;;;1868365;76;21134;-88
2023/01/23 10:38:07;;;;;;;22.75;16.10;;;29.20;48.20;;;;;;1862077;75;21186;-87
2023/01/23 10:43:27;;;;;;;21.50;15.85;;;29.00;48.70;;;;;;1903275;74;21147;-90
2023/01/23 10:45:58;;;;;;;20.90;15.08;;;28.90;49.30;;;;;;1904491;74;21040;-87
2023/01/23 10:48:38;;;;;;;28.20;16.97;;;28.90;49.40;;;;;;1860881;75;21212;-89
2023/01/23 10:51:38;;;;;;;22.20;15.88;;;28.80;49.50;;;;;;1874734;75;21192;-88
2023/01/23 10:54:18;;;;;;;23.85;16.45;;;28.70;49.80;;;;;;1865621;74;21106;-86
2023/01/23 10:57:03;;;;;;;25.00;14.58;;;28.70;50.20;;;;;;1904687;74;21082;-85
2023/01/23 10:59:42;;;;;;;19.80;16.23;;;28.60;50.40;;;;;;1879317;76;21127;-87
2023/01/23 11:02:19;;;;;;;19.55;15.30;;;28.50;50.80;;;;;;1918132;74;21580;-86
2023/01/23 11:04:54;;;;;;;;;;;28.50;51.10;;;;;;1917794;74;21036;-86
2023/01/23 11:07:27;;;;;;;22.70;16.50;;;28.40;51.30;;;;;;1905584;74;20151;-87
2023/01/23 11:10:00;;;;;;;24.10;15.93;;;28.40;51.60;;;;;;1921784;74;21057;-88
2023/01/23 11:12:37;;;;;;;30.57;16.37;;;28.30;51.70;;;;;;1898468;74;21077;-88
2023/01/23 11:15:30;;;;;;;22.55;16.37;;;28.30;52.10;;;;;;1917450;74;21112;-88
2023/01/23 11:18:02;;;;;;;24.70;17.05;;;28.20;53.10;;;;;;1859073;77;21106;-88
2023/01/23 11:20:37;;;;;;;24.20;15.98;;;28.20;52.90;;;;;;1904255;74;21076;-88
2023/01/23 11:23:16;;;;;;;26.27;17.73;;;28.10;53.10;;;;;;1907715;74;21126;-90
2023/01/23 11:25:49;;;;;;;24.32;18.23;;;28.10;53.40;;;;;;1901035;75;21512;-88
2023/01/23 11:28:30;;;;;;;28.95;20.82;;;28.00;53.60;;;;;;1881127;76;21092;-87
2023/01/23 11:31:18;;;;;;;28.87;21.25;;;28.00;54.00;;;;;;1883770;76;21183;-88
2023/01/23 11:34:01;;;;;;;38.10;22.13;;;28.00;54.10;;;;;;1891123;74;21394;-88
2023/01/23 11:36:50;;;;;;;31.95;20.88;;;28.00;54.30;;;;;;1911040;74;21171;-88
2023/01/23 11:39:52;;;;;;;30.62;19.50;;;28.00;54.60;;;;;;1903034;74;21574;-88
2023/01/23 11:42:25;;;;;;;28.12;18.90;;;27.90;54.70;;;;;;1874573;76;21081;-87
2023/01/23 11:45:01;;;;;;;22.35;18.67;;;27.80;55.20;;;;;;1875072;76;21158;-86
2023/01/23 11:47:43;;;;;;;22.98;17.25;;;27.80;54.50;;;;;;1892148;75;21123;-85
2023/01/23 11:50:37;;;;;;;24.23;17.45;;;27.80;54.50;;;;;;1895892;75;21089;-86
2023/01/23 11:53:11;;;;;;;24.07;17.45;;;27.80;54.50;;;;;;1864951;76;21144;-85
2023/01/23 11:56:04;;;;;;;28.10;19.02;;;27.70;54.50;;;;;;1890827;75;21073;-88
2023/01/23 11:58:50;;;;;;;24.47;17.23;;;27.70;54.50;;;;;;1917514;74;21068;-87
2023/01/23 12:01:29;;;;;;;24.10;17.85;;;27.60;54.50;;;;;;1903692;75;21612;-89
2023/01/23 12:04:08;;;;;;;22.22;17.02;;;27.60;54.30;;;;;;1884418;76;21102;-89
2023/01/23 12:06:55;;;;;;;27.32;16.93;;;27.60;54.30;;;;;;1854437;75;21181;-89
2023/01/23 12:09:28;;;;;;;26.82;17.60;;;27.60;54.30;;;;;;1898953;74;21153;-88
2023/01/23 12:12:17;;;;;;;25.45;17.07;;;27.60;54.20;;;;;;1908251;74;21056;-88
2023/01/23 12:14:53;;;;;;;32.30;16.30;;;27.50;54.00;;;;;;1907289;75;21043;-89
2023/01/23 12:17:39;;;;;;;24.90;18.63;;;27.50;54.10;;;;;;1899870;75;21071;-88
2023/01/23 12:20:33;;;;;;;27.93;19.15;;;27.40;53.90;;;;;;1886459;76;21393;-88
2023/01/23 12:23:29;;;;;;;31.23;20.32;;;27.40;53.70;;;;;;1882368;76;21122;-88
2023/01/23 12:26:15;;;;;;;30.72;19.45;;;27.40;53.70;;;;;;1859090;76;21144;-89
2023/01/23 12:29:12;;;;;;;34.45;22.42;;;27.40;53.90;;;;;;1868528;75;21103;-87
2023/01/23 12:32:19;;;;;;;31.70;20.72;;;27.40;53.30;;;;;;1888408;75;21116;-89
2023/01/23 12:35:18;;;;;;;26.90;18.95;;;27.30;53.00;;;;;;1891354;75;21112;-88
2023/01/23 12:37:57;;;;;;;28.73;18.90;;;27.30;53.00;;;;;;1881016;75;21082;-87
2023/01/23 12:40:30;;;;;;;26.85;18.48;;;27.20;52.90;;;;;;1888849;76;21056;-88
2023/01/23 12:43:03;;;;;;;24.98;18.00;;;27.30;53.00;;;;;;1898922;75;21076;-88
2023/01/23 12:45:36;;;;;;;24.45;17.42;;;27.20;52.70;;;;;;1914265;74;21141;-88
2023/01/23 12:48:15;;;;;;;24.07;17.02;;;27.20;52.50;;;;;;1917644;75;21135;-89
2023/01/23 12:50:48;;;;;;;25.55;17.45;;;27.20;52.30;;;;;;1901424;75;21061;-88
2023/01/23 12:53:25;;;;;;;27.70;16.85;;;27.20;52.30;;;;;;1902124;75;21059;-89
2023/01/23 12:56:01;;;;;;;26.37;18.32;;;27.10;51.90;;;;;;1903391;75;21133;-88
2023/01/23 12:58:34;;;;;;;25.12;17.42;;;27.10;52.20;;;;;;1890774;75;21131;-89
2023/01/23 13:01:23;;;;;;;25.82;19.40;;;27.10;51.90;;;;;;1912306;75;21068;-89
2023/01/23 13:04:08;;;;;;;23.83;18.67;;;27.10;52.30;;;;;;1896902;75;21056;-90
2023/01/23 13:06:47;;;;;;;29.20;19.12;;;27.10;52.30;;;;;;1886979;75;21539;-89
2023/01/23 13:09:25;;;;;;;25.65;18.62;;;27.10;52.40;;;;;;1909100;75;21539;-88
2023/01/23 13:12:25;;;;;;;25.77;17.98;;;27.00;52.20;;;;;;1909723;74;21143;-90
2023/01/23 13:15:14;;;;;;;24.20;18.12;;;27.00;52.10;;;;;;1911061;75;21115;-89
2023/01/23 13:17:52;;;;;;;27.05;19.12;;;27.00;52.40;;;;;;1909468;74;21846;-88
2023/01/23 13:23:34;;;;;;;34.73;20.15;;;27.00;52.70;;;;;;1878244;75;21116;-89
2023/01/23 13:26:19;;;;;;;30.25;19.90;;;;;;;;;;1897622;75;21116;-88